createdAt,value
2018-07-10T00:00:32.710Z,0
2018-07-10T00:01:13.293Z,0
2018-07-10T00:01:53.850Z,0
2018-07-10T00:02:34.435Z,0
2018-07-10T00:03:14.992Z,0
2018-07-10T00:03:55.545Z,0
2018-07-10T00:04:36.101Z,0
2018-07-10T00:05:16.664Z,0
2018-07-10T00:05:57.237Z,0
2018-07-10T00:06:37.770Z,0
2018-07-10T00:07:18.319Z,0
2018-07-10T00:07:58.902Z,0
2018-07-10T00:08:39.466Z,0
2018-07-10T00:09:20.030Z,0
2018-07-10T00:10:00.591Z,0
2018-07-10T00:10:41.161Z,0
2018-07-10T00:11:21.712Z,0
2018-07-10T00:12:02.274Z,0
2018-07-10T00:12:42.861Z,0
2018-07-10T00:13:23.538Z,0
2018-07-10T00:14:04.095Z,0
2018-07-10T00:14:44.656Z,0
2018-07-10T00:15:25.212Z,0
2018-07-10T00:16:05.779Z,0
2018-07-10T00:16:46.333Z,0
2018-07-10T00:17:26.931Z,0
2018-07-10T00:18:07.500Z,0
2018-07-10T00:18:48.071Z,0
2018-07-10T00:19:28.627Z,0
2018-07-10T00:20:09.201Z,0
2018-07-10T00:20:49.774Z,0
2018-07-10T00:21:30.339Z,0
2018-07-10T00:22:10.907Z,0
2018-07-10T00:22:51.491Z,0
2018-07-10T00:23:32.068Z,0
2018-07-10T00:24:12.611Z,0
2018-07-10T00:24:53.168Z,0
2018-07-10T00:25:33.730Z,0
2018-07-10T00:26:14.289Z,0
2018-07-10T00:26:54.853Z,0
2018-07-10T00:27:35.430Z,0
2018-07-10T00:28:15.985Z,0
2018-07-10T00:28:56.547Z,0
2018-07-10T00:29:37.115Z,0
2018-07-10T00:30:17.717Z,0
2018-07-10T00:30:58.275Z,0
2018-07-10T00:31:38.826Z,0
2018-07-10T00:32:19.424Z,0
2018-07-10T00:32:59.974Z,0
2018-07-10T00:33:40.526Z,0
2018-07-10T00:34:21.106Z,0
2018-07-10T00:35:01.672Z,0
2018-07-10T00:35:42.233Z,0
2018-07-10T00:36:22.805Z,0
2018-07-10T00:37:03.367Z,0
2018-07-10T00:37:43.927Z,0
2018-07-10T00:38:24.484Z,0
2018-07-10T00:39:05.054Z,0
2018-07-10T00:39:45.628Z,0
2018-07-10T00:40:26.189Z,0
2018-07-10T00:41:06.747Z,0
2018-07-10T00:41:47.352Z,0
2018-07-10T00:42:27.912Z,0
2018-07-10T00:43:08.475Z,0
2018-07-10T00:43:49.051Z,0
2018-07-10T00:44:29.618Z,0
2018-07-10T00:45:10.186Z,0
2018-07-10T00:45:50.741Z,0
2018-07-10T00:46:31.333Z,0
2018-07-10T00:47:11.885Z,0
2018-07-10T00:47:52.443Z,0
2018-07-10T00:48:32.996Z,0
2018-07-10T00:49:13.575Z,0
2018-07-10T00:49:54.144Z,0
2018-07-10T00:50:34.712Z,0
2018-07-10T00:51:15.267Z,0
2018-07-10T00:51:55.846Z,0
2018-07-10T00:52:36.428Z,0
2018-07-10T00:53:16.983Z,0
2018-07-10T00:53:57.533Z,0
2018-07-10T00:54:38.103Z,0
2018-07-10T00:55:18.644Z,0
2018-07-10T00:55:59.210Z,0
2018-07-10T00:56:39.781Z,0
2018-07-10T00:57:20.355Z,0
2018-07-10T00:58:00.925Z,0
2018-07-10T00:58:41.485Z,0
2018-07-10T00:59:22.048Z,0
2018-07-10T01:00:02.608Z,0
2018-07-10T01:00:43.182Z,0
2018-07-10T01:01:23.765Z,0
2018-07-10T01:02:04.319Z,0
2018-07-10T01:02:44.891Z,0
2018-07-10T01:03:25.444Z,0
2018-07-10T01:04:06.014Z,0
2018-07-10T01:04:46.567Z,0
2018-07-10T01:05:27.138Z,0
2018-07-10T01:06:07.698Z,0
2018-07-10T01:06:48.299Z,0
2018-07-10T01:07:28.848Z,0
2018-07-10T01:08:09.392Z,0
2018-07-10T01:08:49.941Z,0
2018-07-10T01:09:30.490Z,0
2018-07-10T01:10:11.050Z,0
2018-07-10T01:10:51.624Z,0
2018-07-10T01:11:32.188Z,0
2018-07-10T01:12:12.797Z,0
2018-07-10T01:12:53.325Z,0
2018-07-10T01:13:33.893Z,0
2018-07-10T01:14:14.444Z,0
2018-07-10T01:14:55.002Z,0
2018-07-10T01:15:35.554Z,0
2018-07-10T01:16:16.117Z,0
2018-07-10T01:16:56.679Z,0
2018-07-10T01:17:37.253Z,0
2018-07-10T01:18:17.811Z,0
2018-07-10T01:18:58.484Z,0
2018-07-10T01:19:38.965Z,0
2018-07-10T01:20:19.545Z,0
2018-07-10T01:21:00.090Z,0
2018-07-10T01:21:40.653Z,0
2018-07-10T01:22:21.222Z,0
2018-07-10T01:23:01.790Z,0
2018-07-10T01:23:42.347Z,0
2018-07-10T01:24:22.911Z,0
2018-07-10T01:25:03.471Z,0
2018-07-10T01:25:44.030Z,0
2018-07-10T01:26:24.599Z,0
2018-07-10T01:27:05.165Z,0
2018-07-10T01:27:45.730Z,0
2018-07-10T01:28:26.293Z,0
2018-07-10T01:29:06.870Z,0
2018-07-10T01:29:47.425Z,0
2018-07-10T01:30:27.979Z,0
2018-07-10T01:31:08.540Z,0
2018-07-10T01:31:49.144Z,0
2018-07-10T01:32:29.695Z,0
2018-07-10T01:33:10.270Z,0
2018-07-10T01:33:50.880Z,0
2018-07-10T01:34:31.449Z,0
2018-07-10T01:35:12.009Z,0
2018-07-10T01:35:52.574Z,0
2018-07-10T01:36:33.138Z,0
2018-07-10T01:37:13.712Z,0
2018-07-10T01:37:54.291Z,0
2018-07-10T01:38:34.877Z,0
2018-07-10T01:39:15.439Z,0
2018-07-10T01:39:56.003Z,0
2018-07-10T01:40:36.592Z,0
2018-07-10T01:41:17.166Z,0
2018-07-10T01:41:57.732Z,0
2018-07-10T01:42:38.296Z,0
2018-07-10T01:43:18.842Z,0
2018-07-10T01:43:59.400Z,0
2018-07-10T01:44:39.954Z,0
2018-07-10T01:45:20.530Z,0
2018-07-10T01:46:01.097Z,0
2018-07-10T01:46:41.662Z,0
2018-07-10T01:47:22.213Z,0
2018-07-10T01:48:02.787Z,0
2018-07-10T01:48:43.356Z,0
2018-07-10T01:49:23.912Z,0
2018-07-10T01:50:04.479Z,0
2018-07-10T01:50:45.039Z,0
2018-07-10T01:51:25.592Z,0
2018-07-10T01:52:06.165Z,0
2018-07-10T01:52:46.759Z,0
2018-07-10T01:53:27.311Z,0
2018-07-10T01:54:07.871Z,0
2018-07-10T01:54:48.411Z,0
2018-07-10T01:55:28.966Z,0
2018-07-10T01:56:09.513Z,0
2018-07-10T01:56:50.077Z,0
2018-07-10T01:57:30.649Z,0
2018-07-10T01:58:11.196Z,0
2018-07-10T01:58:51.767Z,0
2018-07-10T01:59:32.336Z,0
2018-07-10T02:00:12.916Z,0
2018-07-10T02:00:53.478Z,0
2018-07-10T02:01:34.045Z,0
2018-07-10T02:02:14.598Z,0
2018-07-10T02:02:55.160Z,0
2018-07-10T02:03:35.736Z,0
2018-07-10T02:04:16.317Z,0
2018-07-10T02:04:56.873Z,0
2018-07-10T02:05:37.439Z,0
2018-07-10T02:06:18.005Z,0
2018-07-10T02:06:58.585Z,0
2018-07-10T02:07:39.172Z,0
2018-07-10T02:08:19.728Z,0
2018-07-10T02:09:00.281Z,0
2018-07-10T02:09:40.878Z,0
2018-07-10T02:10:21.418Z,0
2018-07-10T02:11:01.979Z,0
2018-07-10T02:11:42.541Z,0
2018-07-10T02:12:23.125Z,0
2018-07-10T02:13:03.685Z,0
2018-07-10T02:13:44.266Z,0
2018-07-10T02:14:24.834Z,0
2018-07-10T02:15:05.392Z,0
2018-07-10T02:15:45.971Z,0
2018-07-10T02:16:26.528Z,0
2018-07-10T02:17:07.078Z,0
2018-07-10T02:17:47.642Z,0
2018-07-10T02:18:28.194Z,0
2018-07-10T02:19:08.762Z,0
2018-07-10T02:19:49.296Z,0
2018-07-10T02:20:29.842Z,0
2018-07-10T02:21:10.398Z,0
2018-07-10T02:21:50.981Z,0
2018-07-10T02:22:31.536Z,0
2018-07-10T02:23:12.111Z,0
2018-07-10T02:23:52.660Z,0
2018-07-10T02:24:33.220Z,0
2018-07-10T02:25:13.795Z,0
2018-07-10T02:25:54.347Z,0
2018-07-10T02:26:34.897Z,0
2018-07-10T02:27:15.456Z,0
2018-07-10T02:27:56.020Z,0
2018-07-10T02:28:36.606Z,0
2018-07-10T02:29:17.183Z,0
2018-07-10T02:29:57.737Z,0
2018-07-10T02:30:38.297Z,0
2018-07-10T02:31:18.856Z,0
2018-07-10T02:31:59.406Z,0
2018-07-10T02:32:39.962Z,0
2018-07-10T02:33:20.513Z,0
2018-07-10T02:34:01.076Z,0
2018-07-10T02:34:41.640Z,0
2018-07-10T02:35:22.234Z,0
2018-07-10T02:36:02.782Z,0
2018-07-10T02:36:43.348Z,0
2018-07-10T02:37:23.915Z,0
2018-07-10T02:38:04.467Z,0
2018-07-10T02:38:45.020Z,0
2018-07-10T02:39:25.563Z,0
2018-07-10T02:40:06.122Z,0
2018-07-10T02:40:46.681Z,0
2018-07-10T02:41:27.260Z,0
2018-07-10T02:42:07.825Z,0
2018-07-10T02:42:48.397Z,0
2018-07-10T02:43:28.953Z,0
2018-07-10T02:44:09.521Z,0
2018-07-10T02:44:50.074Z,0
2018-07-10T02:45:30.631Z,0
2018-07-10T02:46:11.175Z,0
2018-07-10T02:46:51.724Z,0
2018-07-10T02:47:32.316Z,0
2018-07-10T02:48:12.866Z,0
2018-07-10T02:48:53.432Z,0
2018-07-10T02:49:34.018Z,0
2018-07-10T02:50:14.574Z,0
2018-07-10T02:50:55.137Z,0
2018-07-10T02:51:35.721Z,0
2018-07-10T02:52:16.286Z,0
2018-07-10T02:52:56.851Z,0
2018-07-10T02:53:37.405Z,0
2018-07-10T02:54:17.968Z,0
2018-07-10T02:54:58.524Z,0
2018-07-10T02:55:39.089Z,0
2018-07-10T02:56:19.643Z,0
2018-07-10T02:57:00.207Z,0
2018-07-10T02:57:40.762Z,0
2018-07-10T02:58:21.317Z,0
2018-07-10T02:59:01.895Z,0
2018-07-10T02:59:42.477Z,0
2018-07-10T03:00:23.048Z,0
2018-07-10T03:01:03.598Z,0
2018-07-10T03:01:44.160Z,0
2018-07-10T03:02:24.718Z,0
2018-07-10T03:03:05.268Z,0
2018-07-10T03:03:45.820Z,0
2018-07-10T03:04:26.386Z,0
2018-07-10T03:05:06.923Z,0
2018-07-10T03:05:47.487Z,0
2018-07-10T03:06:28.069Z,0
2018-07-10T03:07:08.620Z,0
2018-07-10T03:07:49.180Z,0
2018-07-10T03:08:29.751Z,0
2018-07-10T03:09:10.308Z,0
2018-07-10T03:09:50.908Z,0
2018-07-10T03:10:31.481Z,0
2018-07-10T03:11:12.039Z,0
2018-07-10T03:11:52.610Z,0
2018-07-10T03:12:33.210Z,0
2018-07-10T03:13:13.773Z,0
2018-07-10T03:13:54.341Z,0
2018-07-10T03:14:34.906Z,0
2018-07-10T03:15:15.467Z,0
2018-07-10T03:15:56.039Z,0
2018-07-10T03:16:36.593Z,0
2018-07-10T03:17:17.155Z,0
2018-07-10T03:17:57.737Z,0
2018-07-10T03:18:38.308Z,0
2018-07-10T03:19:18.863Z,0
2018-07-10T03:19:59.424Z,0
2018-07-10T03:20:39.968Z,0
2018-07-10T03:21:20.532Z,0
2018-07-10T03:22:01.087Z,0
2018-07-10T03:22:41.649Z,0
2018-07-10T03:23:22.215Z,0
2018-07-10T03:24:02.792Z,0
2018-07-10T03:24:43.377Z,0
2018-07-10T03:25:23.927Z,0
2018-07-10T03:26:04.500Z,0
2018-07-10T03:26:45.056Z,0
2018-07-10T03:27:25.607Z,0
2018-07-10T03:28:06.190Z,0
2018-07-10T03:28:46.734Z,0
2018-07-10T03:29:27.293Z,0
2018-07-10T03:30:07.852Z,0
2018-07-10T03:30:48.435Z,0
2018-07-10T03:31:28.998Z,0
2018-07-10T03:32:09.556Z,0
2018-07-10T03:32:50.111Z,0
2018-07-10T03:33:30.636Z,0
2018-07-10T03:34:11.191Z,0
2018-07-10T03:34:51.741Z,0
2018-07-10T03:35:32.301Z,0
2018-07-10T03:36:12.863Z,0
2018-07-10T03:36:53.405Z,0
2018-07-10T03:37:33.956Z,0
2018-07-10T03:38:14.526Z,0
2018-07-10T03:38:55.064Z,0
2018-07-10T03:39:35.636Z,0
2018-07-10T03:40:16.193Z,0
2018-07-10T03:40:56.789Z,0
2018-07-10T03:41:37.348Z,0
2018-07-10T03:42:17.908Z,0
2018-07-10T03:42:58.471Z,0
2018-07-10T03:43:39.054Z,0
2018-07-10T03:44:19.627Z,0
2018-07-10T03:45:00.196Z,0
2018-07-10T03:45:40.741Z,0
2018-07-10T03:46:21.310Z,0
2018-07-10T03:47:01.854Z,0
2018-07-10T03:47:42.414Z,0
2018-07-10T03:48:22.989Z,0
2018-07-10T03:49:03.560Z,0
2018-07-10T03:49:44.131Z,0
2018-07-10T03:50:24.681Z,0
2018-07-10T03:51:05.238Z,5
2018-07-10T03:51:45.817Z,5
2018-07-10T03:52:26.395Z,5
2018-07-10T03:53:06.938Z,0
2018-07-10T03:53:47.501Z,0
2018-07-10T03:54:28.055Z,0
2018-07-10T03:55:08.614Z,0
2018-07-10T03:55:49.194Z,0
2018-07-10T03:56:29.764Z,0
2018-07-10T03:57:10.339Z,0
2018-07-10T03:57:50.883Z,0
2018-07-10T03:58:31.457Z,5
2018-07-10T03:59:12.017Z,5
2018-07-10T03:59:52.579Z,5
2018-07-10T04:00:33.159Z,5
2018-07-10T04:01:13.718Z,5
2018-07-10T04:01:54.270Z,5
2018-07-10T04:02:34.827Z,5
2018-07-10T04:03:15.448Z,5
2018-07-10T04:03:56.012Z,5
2018-07-10T04:04:36.578Z,5
2018-07-10T04:05:17.135Z,5
2018-07-10T04:05:57.718Z,5
2018-07-10T04:06:38.252Z,5
2018-07-10T04:07:18.817Z,5
2018-07-10T04:07:59.385Z,5
2018-07-10T04:08:39.944Z,5
2018-07-10T04:09:20.517Z,5
2018-07-10T04:10:01.071Z,5
2018-07-10T04:10:41.636Z,5
2018-07-10T04:11:22.187Z,5
2018-07-10T04:12:02.726Z,5
2018-07-10T04:12:43.283Z,5
2018-07-10T04:13:23.840Z,5
2018-07-10T04:14:04.430Z,5
2018-07-10T04:14:44.990Z,5
2018-07-10T04:15:25.579Z,5
2018-07-10T04:16:06.136Z,5
2018-07-10T04:16:46.701Z,5
2018-07-10T04:17:27.254Z,5
2018-07-10T04:18:07.839Z,5
2018-07-10T04:18:48.396Z,5
2018-07-10T04:19:28.979Z,5
2018-07-10T04:20:09.531Z,5
2018-07-10T04:20:50.103Z,5
2018-07-10T04:21:30.652Z,5
2018-07-10T04:22:11.202Z,5
2018-07-10T04:22:51.784Z,5
2018-07-10T04:23:32.340Z,5
2018-07-10T04:24:12.902Z,5
2018-07-10T04:24:53.472Z,5
2018-07-10T04:25:34.048Z,5
2018-07-10T04:26:14.593Z,5
2018-07-10T04:26:55.174Z,5
2018-07-10T04:27:35.735Z,5
2018-07-10T04:28:16.304Z,5
2018-07-10T04:28:56.913Z,5
2018-07-10T04:29:37.454Z,5
2018-07-10T04:30:18.019Z,5
2018-07-10T04:30:58.565Z,5
2018-07-10T04:31:39.136Z,5
2018-07-10T04:32:19.713Z,5
2018-07-10T04:33:00.288Z,5
2018-07-10T04:33:40.867Z,5
2018-07-10T04:34:21.464Z,5
2018-07-10T04:35:02.025Z,5
2018-07-10T04:35:42.596Z,5
2018-07-10T04:36:23.184Z,5
2018-07-10T04:37:03.731Z,10
2018-07-10T04:37:44.314Z,10
2018-07-10T04:38:24.869Z,10
2018-07-10T04:39:05.624Z,10
2018-07-10T04:39:46.161Z,10
2018-07-10T04:40:26.729Z,10
2018-07-10T04:41:07.293Z,10
2018-07-10T04:41:47.855Z,10
2018-07-10T04:42:28.508Z,10
2018-07-10T04:43:08.996Z,10
2018-07-10T04:43:49.573Z,10
2018-07-10T04:44:30.523Z,10
2018-07-10T04:45:11.078Z,15
2018-07-10T04:45:51.736Z,15
2018-07-10T04:46:32.296Z,15
2018-07-10T04:47:12.866Z,15
2018-07-10T04:47:53.431Z,15
2018-07-10T04:48:33.982Z,15
2018-07-10T04:49:14.551Z,15
2018-07-10T04:49:55.103Z,15
2018-07-10T04:50:35.682Z,15
2018-07-10T04:51:16.250Z,15
2018-07-10T04:51:56.806Z,15
2018-07-10T04:52:37.411Z,15
2018-07-10T04:53:17.999Z,15
2018-07-10T04:53:58.562Z,15
2018-07-10T04:54:39.129Z,15
2018-07-10T04:55:19.699Z,15
2018-07-10T04:56:00.256Z,15
2018-07-10T04:56:40.821Z,15
2018-07-10T04:57:21.412Z,15
2018-07-10T04:58:02.000Z,15
2018-07-10T04:58:42.549Z,15
2018-07-10T04:59:23.120Z,15
2018-07-10T05:00:03.720Z,15
2018-07-10T05:00:44.279Z,15
2018-07-10T05:01:24.848Z,15
2018-07-10T05:02:05.720Z,20
2018-07-10T05:02:46.157Z,20
2018-07-10T05:03:26.743Z,20
2018-07-10T05:04:07.728Z,20
2018-07-10T05:04:48.294Z,20
2018-07-10T05:05:29.211Z,25
2018-07-10T05:06:09.795Z,25
2018-07-10T05:06:50.375Z,25
2018-07-10T05:07:30.946Z,25
2018-07-10T05:08:11.510Z,25
2018-07-10T05:08:52.077Z,25
2018-07-10T05:09:32.649Z,30
2018-07-10T05:10:13.236Z,30
2018-07-10T05:10:53.812Z,30
2018-07-10T05:11:34.360Z,30
2018-07-10T05:12:14.920Z,30
2018-07-10T05:12:55.481Z,30
2018-07-10T05:13:36.059Z,30
2018-07-10T05:14:16.626Z,30
2018-07-10T05:14:57.192Z,30
2018-07-10T05:15:37.758Z,30
2018-07-10T05:16:18.301Z,30
2018-07-10T05:16:58.855Z,35
2018-07-10T05:17:39.456Z,35
2018-07-10T05:18:20.212Z,35
2018-07-10T05:19:00.811Z,35
2018-07-10T05:19:41.376Z,30
2018-07-10T05:20:21.954Z,30
2018-07-10T05:21:02.479Z,30
2018-07-10T05:21:43.033Z,30
2018-07-10T05:22:23.618Z,30
2018-07-10T05:23:04.361Z,30
2018-07-10T05:23:44.852Z,30
2018-07-10T05:24:25.445Z,30
2018-07-10T05:25:06.009Z,30
2018-07-10T05:25:46.577Z,30
2018-07-10T05:26:27.148Z,30
2018-07-10T05:27:07.713Z,30
2018-07-10T05:27:48.371Z,30
2018-07-10T05:28:28.926Z,30
2018-07-10T05:29:09.509Z,35
2018-07-10T05:29:50.072Z,35
2018-07-10T05:30:30.618Z,35
2018-07-10T05:31:11.199Z,35
2018-07-10T05:31:51.762Z,35
2018-07-10T05:32:32.316Z,40
2018-07-10T05:33:12.876Z,40
2018-07-10T05:33:53.436Z,40
2018-07-10T05:34:34.006Z,40
2018-07-10T05:35:14.575Z,45
2018-07-10T05:35:55.145Z,45
2018-07-10T05:36:35.707Z,50
2018-07-10T05:37:16.385Z,50
2018-07-10T05:37:56.906Z,55
2018-07-10T05:38:37.467Z,50
2018-07-10T05:39:18.034Z,50
2018-07-10T05:39:58.602Z,45
2018-07-10T05:40:39.157Z,45
2018-07-10T05:41:19.784Z,45
2018-07-10T05:42:00.345Z,45
2018-07-10T05:42:40.937Z,45
2018-07-10T05:43:21.496Z,45
2018-07-10T05:44:02.069Z,45
2018-07-10T05:44:42.636Z,45
2018-07-10T05:45:23.211Z,45
2018-07-10T05:46:03.764Z,45
2018-07-10T05:46:44.320Z,45
2018-07-10T05:47:24.872Z,45
2018-07-10T05:48:05.423Z,45
2018-07-10T05:48:46.000Z,45
2018-07-10T05:49:26.557Z,45
2018-07-10T05:50:07.100Z,45
2018-07-10T05:50:47.676Z,40
2018-07-10T05:51:28.284Z,40
2018-07-10T05:52:08.863Z,40
2018-07-10T05:52:49.377Z,40
2018-07-10T05:53:29.947Z,35
2018-07-10T05:54:10.506Z,35
2018-07-10T05:54:51.071Z,35
2018-07-10T05:55:31.631Z,35
2018-07-10T05:56:12.381Z,30
2018-07-10T05:56:52.955Z,30
2018-07-10T05:57:33.490Z,30
2018-07-10T05:58:14.068Z,30
2018-07-10T05:58:54.643Z,35
2018-07-10T05:59:35.215Z,35
2018-07-10T06:00:15.780Z,35
2018-07-10T06:00:56.345Z,35
2018-07-10T06:01:36.905Z,35
2018-07-10T06:02:17.460Z,40
2018-07-10T06:02:58.030Z,40
2018-07-10T06:03:38.580Z,40
2018-07-10T06:04:19.161Z,40
2018-07-10T06:04:59.702Z,40
2018-07-10T06:05:40.271Z,45
2018-07-10T06:06:20.840Z,45
2018-07-10T06:07:01.460Z,45
2018-07-10T06:07:41.997Z,45
2018-07-10T06:08:22.553Z,45
2018-07-10T06:09:03.148Z,50
2018-07-10T06:09:43.708Z,50
2018-07-10T06:10:24.352Z,50
2018-07-10T06:11:04.839Z,50
2018-07-10T06:11:45.404Z,50
2018-07-10T06:12:25.982Z,50
2018-07-10T06:13:06.505Z,50
2018-07-10T06:13:47.060Z,45
2018-07-10T06:14:27.617Z,45
2018-07-10T06:15:08.171Z,45
2018-07-10T06:15:48.736Z,45
2018-07-10T06:16:29.303Z,45
2018-07-10T06:17:09.882Z,50
2018-07-10T06:17:50.442Z,50
2018-07-10T06:18:31.027Z,50
2018-07-10T06:19:11.601Z,50
2018-07-10T06:19:52.153Z,50
2018-07-10T06:20:32.717Z,50
2018-07-10T06:21:13.288Z,50
2018-07-10T06:21:53.861Z,50
2018-07-10T06:22:34.431Z,50
2018-07-10T06:23:15.008Z,50
2018-07-10T06:23:55.574Z,50
2018-07-10T06:24:36.139Z,50
2018-07-10T06:25:16.705Z,50
2018-07-10T06:25:57.270Z,50
2018-07-10T06:26:37.828Z,50
2018-07-10T06:27:18.377Z,50
2018-07-10T06:27:58.959Z,50
2018-07-10T06:28:39.526Z,50
2018-07-10T06:29:20.100Z,45
2018-07-10T06:30:00.706Z,45
2018-07-10T06:30:41.287Z,45
2018-07-10T06:31:21.881Z,50
2018-07-10T06:32:02.437Z,50
2018-07-10T06:32:42.985Z,50
2018-07-10T06:33:23.544Z,50
2018-07-10T06:34:04.112Z,50
2018-07-10T06:34:44.687Z,50
2018-07-10T06:35:25.259Z,50
2018-07-10T06:36:05.809Z,55
2018-07-10T06:36:46.389Z,55
2018-07-10T06:37:26.943Z,60
2018-07-10T06:38:07.498Z,65
2018-07-10T06:38:48.052Z,75
2018-07-10T06:39:28.621Z,85
2018-07-10T06:40:09.200Z,95
2018-07-10T06:40:49.759Z,100
2018-07-10T06:41:30.328Z,120
2018-07-10T06:42:10.885Z,135
2018-07-10T06:42:51.446Z,135
2018-07-10T06:43:32.004Z,145
2018-07-10T06:44:12.607Z,160
2018-07-10T06:44:53.160Z,190
2018-07-10T06:45:33.725Z,275
2018-07-10T06:46:14.313Z,270
2018-07-10T06:46:54.842Z,195
2018-07-10T06:47:35.390Z,170
2018-07-10T06:48:15.991Z,170
2018-07-10T06:48:56.559Z,155
2018-07-10T06:49:37.117Z,160
2018-07-10T06:50:17.675Z,225
2018-07-10T06:50:58.236Z,575
2018-07-10T06:51:38.797Z,250
2018-07-10T06:52:19.552Z,170
2018-07-10T06:53:00.247Z,140
2018-07-10T06:53:40.546Z,120
2018-07-10T06:54:21.073Z,110
2018-07-10T06:55:01.649Z,120
2018-07-10T06:55:42.191Z,125
2018-07-10T06:56:22.754Z,120
2018-07-10T06:57:03.324Z,115
2018-07-10T06:57:43.943Z,120
2018-07-10T06:58:24.526Z,130
2018-07-10T06:59:05.061Z,135
2018-07-10T06:59:45.638Z,160
2018-07-10T07:00:26.187Z,845
2018-07-10T07:01:06.752Z,280
2018-07-10T07:01:47.350Z,230
2018-07-10T07:02:27.917Z,175
2018-07-10T07:03:08.479Z,120
2018-07-10T07:03:49.052Z,110
2018-07-10T07:04:29.667Z,105
2018-07-10T07:05:10.207Z,105
2018-07-10T07:05:50.833Z,115
2018-07-10T07:06:31.397Z,150
2018-07-10T07:07:11.980Z,165
2018-07-10T07:07:52.588Z,155
2018-07-10T07:08:33.208Z,125
2018-07-10T07:09:13.781Z,120
2018-07-10T07:09:54.358Z,110
2018-07-10T07:10:34.933Z,110
2018-07-10T07:11:15.498Z,115
2018-07-10T07:11:56.081Z,115
2018-07-10T07:12:36.647Z,105
2018-07-10T07:13:17.220Z,105
2018-07-10T07:13:57.804Z,100
2018-07-10T07:14:38.378Z,95
2018-07-10T07:15:18.949Z,95
2018-07-10T07:15:59.521Z,95
2018-07-10T07:16:40.093Z,85
2018-07-10T07:17:20.657Z,80
2018-07-10T07:18:01.213Z,70
2018-07-10T07:18:41.755Z,65
2018-07-10T07:19:22.350Z,65
2018-07-10T07:20:02.907Z,60
2018-07-10T07:20:43.470Z,60
2018-07-10T07:21:24.031Z,60
2018-07-10T07:22:04.591Z,60
2018-07-10T07:22:45.160Z,60
2018-07-10T07:23:25.730Z,60
2018-07-10T07:24:06.302Z,60
2018-07-10T07:24:46.863Z,65
2018-07-10T07:25:27.428Z,65
2018-07-10T07:26:07.999Z,70
2018-07-10T07:26:48.570Z,70
2018-07-10T07:27:29.223Z,70
2018-07-10T07:28:09.799Z,75
2018-07-10T07:28:50.362Z,75
2018-07-10T07:29:30.943Z,80
2018-07-10T07:30:11.516Z,80
2018-07-10T07:30:52.089Z,80
2018-07-10T07:31:32.657Z,85
2018-07-10T07:32:13.207Z,85
2018-07-10T07:32:53.757Z,90
2018-07-10T07:33:34.383Z,95
2018-07-10T07:34:14.940Z,95
2018-07-10T07:34:55.546Z,100
2018-07-10T07:35:36.077Z,105
2018-07-10T07:36:16.656Z,110
2018-07-10T07:36:57.222Z,115
2018-07-10T07:37:37.779Z,115
2018-07-10T07:38:18.337Z,120
2018-07-10T07:38:58.911Z,120
2018-07-10T07:39:39.524Z,120
2018-07-10T07:40:20.076Z,120
2018-07-10T07:41:00.650Z,120
2018-07-10T07:41:41.224Z,130
2018-07-10T07:42:21.791Z,145
2018-07-10T07:43:02.379Z,160
2018-07-10T07:43:42.953Z,170
2018-07-10T07:44:23.629Z,195
2018-07-10T07:45:04.122Z,285
2018-07-10T07:45:44.716Z,355
2018-07-10T07:46:25.273Z,410
2018-07-10T07:47:05.857Z,670
2018-07-10T07:47:46.413Z,735
2018-07-10T07:48:26.990Z,730
2018-07-10T07:49:07.541Z,715
2018-07-10T07:49:48.092Z,520
2018-07-10T07:50:28.663Z,660
2018-07-10T07:51:09.221Z,680
2018-07-10T07:51:49.787Z,660
2018-07-10T07:52:30.396Z,640
2018-07-10T07:53:10.911Z,640
2018-07-10T07:53:51.513Z,640
2018-07-10T07:54:32.060Z,605
2018-07-10T07:55:12.629Z,630
2018-07-10T07:55:53.186Z,620
2018-07-10T07:56:33.759Z,615
2018-07-10T07:57:14.340Z,605
2018-07-10T07:57:54.947Z,590
2018-07-10T07:58:35.489Z,255
2018-07-10T07:59:16.063Z,265
2018-07-10T07:59:56.629Z,515
2018-07-10T08:00:37.196Z,620
2018-07-10T08:01:17.776Z,610
2018-07-10T08:01:58.353Z,610
2018-07-10T08:02:38.928Z,570
2018-07-10T08:03:19.502Z,410
2018-07-10T08:04:00.078Z,250
2018-07-10T08:04:40.640Z,235
2018-07-10T08:05:21.215Z,240
2018-07-10T08:06:01.779Z,250
2018-07-10T08:06:42.345Z,255
2018-07-10T08:07:22.940Z,260
2018-07-10T08:08:03.503Z,255
2018-07-10T08:08:44.068Z,250
2018-07-10T08:09:24.630Z,265
2018-07-10T08:10:05.191Z,325
2018-07-10T08:10:45.783Z,255
2018-07-10T08:11:26.332Z,260
2018-07-10T08:12:06.894Z,320
2018-07-10T08:12:47.491Z,315
2018-07-10T08:13:28.055Z,285
2018-07-10T08:14:08.628Z,215
2018-07-10T08:14:49.196Z,190
2018-07-10T08:15:29.753Z,185
2018-07-10T08:16:10.321Z,180
2018-07-10T08:16:50.925Z,175
2018-07-10T08:17:31.479Z,180
2018-07-10T08:18:12.077Z,200
2018-07-10T08:18:52.612Z,230
2018-07-10T08:19:33.179Z,255
2018-07-10T08:20:13.752Z,290
2018-07-10T08:20:54.327Z,280
2018-07-10T08:21:34.900Z,285
2018-07-10T08:22:15.485Z,265
2018-07-10T08:22:56.059Z,190
2018-07-10T08:23:36.620Z,175
2018-07-10T08:24:17.192Z,175
2018-07-10T08:24:57.762Z,175
2018-07-10T08:25:38.297Z,165
2018-07-10T08:26:18.855Z,170
2018-07-10T08:26:59.418Z,170
2018-07-10T08:27:40.004Z,165
2018-07-10T08:28:20.536Z,150
2018-07-10T08:29:01.088Z,130
2018-07-10T08:29:41.664Z,120
2018-07-10T08:30:22.229Z,115
2018-07-10T08:31:02.783Z,110
2018-07-10T08:31:43.353Z,110
2018-07-10T08:32:23.953Z,105
2018-07-10T08:33:04.535Z,105
2018-07-10T08:33:45.268Z,110
2018-07-10T08:34:25.671Z,120
2018-07-10T08:35:06.237Z,120
2018-07-10T08:35:46.810Z,120
2018-07-10T08:36:27.375Z,125
2018-07-10T08:37:07.939Z,125
2018-07-10T08:37:48.522Z,125
2018-07-10T08:38:29.106Z,125
2018-07-10T08:39:09.692Z,130
2018-07-10T08:39:50.229Z,135
2018-07-10T08:40:30.948Z,145
2018-07-10T08:41:11.505Z,155
2018-07-10T08:41:52.081Z,165
2018-07-10T08:42:32.737Z,160
2018-07-10T08:43:13.507Z,155
2018-07-10T08:43:54.146Z,145
2018-07-10T08:44:34.958Z,140
2018-07-10T08:45:15.915Z,140
2018-07-10T08:45:56.517Z,145
2018-07-10T08:46:37.288Z,140
2018-07-10T08:47:17.927Z,140
2018-07-10T08:47:58.515Z,140
2018-07-10T08:48:39.080Z,140
2018-07-10T08:49:19.667Z,135
2018-07-10T08:50:00.224Z,130
2018-07-10T08:50:40.836Z,125
2018-07-10T08:51:21.358Z,120
2018-07-10T08:52:01.929Z,120
2018-07-10T08:52:42.488Z,115
2018-07-10T08:53:23.057Z,115
2018-07-10T08:54:03.635Z,115
2018-07-10T08:54:44.220Z,110
2018-07-10T08:55:24.770Z,110
2018-07-10T08:56:05.345Z,110
2018-07-10T08:56:45.910Z,110
2018-07-10T08:57:26.471Z,105
2018-07-10T08:58:07.051Z,105
2018-07-10T08:58:47.625Z,105
2018-07-10T08:59:28.246Z,110
2018-07-10T09:00:08.809Z,100
2018-07-10T09:00:49.398Z,105
2018-07-10T09:01:29.955Z,95
2018-07-10T09:02:10.515Z,90
2018-07-10T09:02:51.049Z,90
2018-07-10T09:03:31.626Z,85
2018-07-10T09:04:12.179Z,80
2018-07-10T09:04:52.746Z,80
2018-07-10T09:05:33.299Z,80
2018-07-10T09:06:13.878Z,80
2018-07-10T09:06:54.445Z,80
2018-07-10T09:07:35.007Z,80
2018-07-10T09:08:15.595Z,80
2018-07-10T09:08:56.162Z,80
2018-07-10T09:09:36.712Z,80
2018-07-10T09:10:17.282Z,85
2018-07-10T09:10:57.847Z,85
2018-07-10T09:11:38.405Z,85
2018-07-10T09:12:18.966Z,85
2018-07-10T09:12:59.531Z,85
2018-07-10T09:13:40.087Z,80
2018-07-10T09:14:20.634Z,80
2018-07-10T09:15:01.195Z,80
2018-07-10T09:15:41.781Z,75
2018-07-10T09:16:22.357Z,75
2018-07-10T09:17:02.901Z,75
2018-07-10T09:17:43.461Z,80
2018-07-10T09:18:24.027Z,85
2018-07-10T09:19:04.603Z,85
2018-07-10T09:19:45.193Z,90
2018-07-10T09:20:25.746Z,95
2018-07-10T09:21:06.320Z,100
2018-07-10T09:21:46.866Z,100
2018-07-10T09:22:27.433Z,105
2018-07-10T09:23:08.007Z,105
2018-07-10T09:23:48.547Z,105
2018-07-10T09:24:29.109Z,110
2018-07-10T09:25:09.670Z,110
2018-07-10T09:25:50.317Z,110
2018-07-10T09:26:30.905Z,105
2018-07-10T09:27:11.508Z,100
2018-07-10T09:27:52.061Z,100
2018-07-10T09:28:32.627Z,105
2018-07-10T09:29:13.217Z,110
2018-07-10T09:29:53.789Z,120
2018-07-10T09:30:34.340Z,120
2018-07-10T09:31:14.902Z,125
2018-07-10T09:31:55.479Z,125
2018-07-10T09:32:36.063Z,130
2018-07-10T09:33:16.634Z,140
2018-07-10T09:33:57.193Z,155
2018-07-10T09:34:37.765Z,170
2018-07-10T09:35:18.386Z,175
2018-07-10T09:35:58.938Z,190
2018-07-10T09:36:39.504Z,200
2018-07-10T09:37:20.071Z,210
2018-07-10T09:38:00.656Z,220
2018-07-10T09:38:41.230Z,250
2018-07-10T09:39:21.812Z,260
2018-07-10T09:40:02.422Z,265
2018-07-10T09:40:42.979Z,265
2018-07-10T09:41:23.554Z,260
2018-07-10T09:42:04.236Z,255
2018-07-10T09:42:44.810Z,245
2018-07-10T09:43:25.377Z,235